sensor_id;sensor_type;location;lat;lon;timestamp;temperature;humidity
48666;DHT22;34452;50.796;4.994;2024-01-15T00:02:06;2.20;99.90
48666;DHT22;34452;50.796;4.994;2024-01-15T00:04:39;2.20;99.90
48666;DHT22;34452;50.796;4.994;2024-01-15T00:07:06;2.20;99.90
48666;DHT22;34452;50.796;4.994;2024-01-15T00:09:32;2.20;99.90
48666;DHT22;34452;50.796;4.994;2024-01-15T00:11:58;2.20;99.90
48666;DHT22;34452;50.796;4.994;2024-01-15T00:14:24;2.20;99.90
48666;DHT22;34452;50.796;4.994;2024-01-15T00:16:49;2.20;99.90
48666;DHT22;34452;50.796;4.994;2024-01-15T00:19:17;2.10;99.90
48666;DHT22;34452;50.796;4.994;2024-01-15T00:21:43;2.10;99.90
48666;DHT22;34452;50.796;4.994;2024-01-15T00:24:09;2.10;99.90
48666;DHT22;34452;50.796;4.994;2024-01-15T00:26:34;2.10;99.90
48666;DHT22;34452;50.796;4.994;2024-01-15T00:29:00;2.20;99.90
48666;DHT22;34452;50.796;4.994;2024-01-15T00:31:26;2.20;99.90
48666;DHT22;34452;50.796;4.994;2024-01-15T00:33:52;2.20;99.90
48666;DHT22;34452;50.796;4.994;2024-01-15T00:36:17;2.20;99.90
48666;DHT22;34452;50.796;4.994;2024-01-15T00:38:46;2.20;99.90
48666;DHT22;34452;50.796;4.994;2024-01-15T00:41:13;2.20;99.90
48666;DHT22;34452;50.796;4.994;2024-01-15T00:43:39;2.20;99.90
48666;DHT22;34452;50.796;4.994;2024-01-15T00:46:05;2.20;99.90
48666;DHT22;34452;50.796;4.994;2024-01-15T00:48:31;2.20;99.90
48666;DHT22;34452;50.796;4.994;2024-01-15T00:50:57;2.20;99.90
48666;DHT22;34452;50.796;4.994;2024-01-15T00:53:22;2.20;99.90
48666;DHT22;34452;50.796;4.994;2024-01-15T00:55:48;2.20;99.90
48666;DHT22;34452;50.796;4.994;2024-01-15T00:58:14;2.20;99.90
48666;DHT22;34452;50.796;4.994;2024-01-15T01:00:40;2.20;99.90
48666;DHT22;34452;50.796;4.994;2024-01-15T01:03:06;2.20;99.90
48666;DHT22;34452;50.796;4.994;2024-01-15T01:05:33;2.20;99.90
48666;DHT22;34452;50.796;4.994;2024-01-15T01:07:59;2.30;99.90
48666;DHT22;34452;50.796;4.994;2024-01-15T01:10:25;2.20;99.90
48666;DHT22;34452;50.796;4.994;2024-01-15T01:12:50;2.20;99.90
48666;DHT22;34452;50.796;4.994;2024-01-15T01:15:16;2.20;99.90
48666;DHT22;34452;50.796;4.994;2024-01-15T01:17:42;2.30;99.90
48666;DHT22;34452;50.796;4.994;2024-01-15T01:20:08;2.30;99.90
48666;DHT22;34452;50.796;4.994;2024-01-15T01:22:36;2.30;99.90
48666;DHT22;34452;50.796;4.994;2024-01-15T01:25:01;2.30;99.90
48666;DHT22;34452;50.796;4.994;2024-01-15T01:27:28;2.40;99.90
48666;DHT22;34452;50.796;4.994;2024-01-15T01:29:53;2.40;99.90
48666;DHT22;34452;50.796;4.994;2024-01-15T01:32:19;2.40;99.90
48666;DHT22;34452;50.796;4.994;2024-01-15T01:34:45;2.40;99.90
48666;DHT22;34452;50.796;4.994;2024-01-15T01:37:11;2.40;99.90
48666;DHT22;34452;50.796;4.994;2024-01-15T01:39:41;2.40;99.90
48666;DHT22;34452;50.796;4.994;2024-01-15T01:42:06;2.40;99.90
48666;DHT22;34452;50.796;4.994;2024-01-15T01:44:32;2.40;99.90
48666;DHT22;34452;50.796;4.994;2024-01-15T01:47:00;2.40;99.90
48666;DHT22;34452;50.796;4.994;2024-01-15T01:49:27;2.50;99.90
48666;DHT22;34452;50.796;4.994;2024-01-15T01:51:53;2.50;99.90
48666;DHT22;34452;50.796;4.994;2024-01-15T01:54:21;2.50;99.90
48666;DHT22;34452;50.796;4.994;2024-01-15T01:56:48;2.50;99.90
48666;DHT22;34452;50.796;4.994;2024-01-15T01:59:14;2.50;99.90
48666;DHT22;34452;50.796;4.994;2024-01-15T02:01:40;2.50;99.90
48666;DHT22;34452;50.796;4.994;2024-01-15T02:04:08;2.40;99.90
48666;DHT22;34452;50.796;4.994;2024-01-15T02:06:34;2.40;99.90
48666;DHT22;34452;50.796;4.994;2024-01-15T02:09:00;2.40;99.90
48666;DHT22;34452;50.796;4.994;2024-01-15T02:11:26;2.40;99.90
48666;DHT22;34452;50.796;4.994;2024-01-15T02:13:52;2.40;99.90
48666;DHT22;34452;50.796;4.994;2024-01-15T02:16:17;2.40;99.90
48666;DHT22;34452;50.796;4.994;2024-01-15T02:18:44;2.30;99.90
48666;DHT22;34452;50.796;4.994;2024-01-15T02:21:11;2.30;99.90
48666;DHT22;34452;50.796;4.994;2024-01-15T02:23:38;2.30;99.90
48666;DHT22;34452;50.796;4.994;2024-01-15T02:26:05;2.30;99.90
48666;DHT22;34452;50.796;4.994;2024-01-15T02:28:32;2.30;99.90
48666;DHT22;34452;50.796;4.994;2024-01-15T02:30:58;2.30;99.90
48666;DHT22;34452;50.796;4.994;2024-01-15T02:33:24;2.30;99.90
48666;DHT22;34452;50.796;4.994;2024-01-15T02:35:49;2.30;99.90
48666;DHT22;34452;50.796;4.994;2024-01-15T02:38:16;2.30;99.90
48666;DHT22;34452;50.796;4.994;2024-01-15T02:40:42;2.30;99.90
48666;DHT22;34452;50.796;4.994;2024-01-15T02:43:08;2.30;99.90
48666;DHT22;34452;50.796;4.994;2024-01-15T02:45:34;2.30;99.90
48666;DHT22;34452;50.796;4.994;2024-01-15T02:48:00;2.30;99.90
48666;DHT22;34452;50.796;4.994;2024-01-15T02:50:25;2.30;99.90
48666;DHT22;34452;50.796;4.994;2024-01-15T02:52:51;2.30;99.90
48666;DHT22;34452;50.796;4.994;2024-01-15T02:55:17;2.30;99.90
48666;DHT22;34452;50.796;4.994;2024-01-15T02:57:43;2.40;99.90
48666;DHT22;34452;50.796;4.994;2024-01-15T03:00:09;2.40;99.90
48666;DHT22;34452;50.796;4.994;2024-01-15T03:02:36;2.40;99.90
48666;DHT22;34452;50.796;4.994;2024-01-15T03:05:02;2.40;99.90
48666;DHT22;34452;50.796;4.994;2024-01-15T03:07:28;2.40;99.90
48666;DHT22;34452;50.796;4.994;2024-01-15T03:09:54;2.30;99.90
48666;DHT22;34452;50.796;4.994;2024-01-15T03:12:20;2.30;99.90
48666;DHT22;34452;50.796;4.994;2024-01-15T03:14:45;2.40;99.90
48666;DHT22;34452;50.796;4.994;2024-01-15T03:17:11;2.40;99.90
48666;DHT22;34452;50.796;4.994;2024-01-15T03:19:37;2.30;99.90
48666;DHT22;34452;50.796;4.994;2024-01-15T03:22:03;2.40;99.90
48666;DHT22;34452;50.796;4.994;2024-01-15T03:24:31;2.30;99.90
48666;DHT22;34452;50.796;4.994;2024-01-15T03:26:57;2.30;99.90
48666;DHT22;34452;50.796;4.994;2024-01-15T03:29:23;2.40;99.90
48666;DHT22;34452;50.796;4.994;2024-01-15T03:31:48;2.40;99.90
48666;DHT22;34452;50.796;4.994;2024-01-15T03:34:14;2.40;99.90
48666;DHT22;34452;50.796;4.994;2024-01-15T03:36:40;2.40;99.90
48666;DHT22;34452;50.796;4.994;2024-01-15T03:39:06;2.40;99.90
48666;DHT22;34452;50.796;4.994;2024-01-15T03:41:33;2.50;99.90
48666;DHT22;34452;50.796;4.994;2024-01-15T03:43:58;2.40;99.90
48666;DHT22;34452;50.796;4.994;2024-01-15T03:46:24;2.50;99.90
48666;DHT22;34452;50.796;4.994;2024-01-15T03:48:50;2.50;99.90
48666;DHT22;34452;50.796;4.994;2024-01-15T03:51:17;2.40;99.90
48666;DHT22;34452;50.796;4.994;2024-01-15T03:53:43;2.50;99.90
48666;DHT22;34452;50.796;4.994;2024-01-15T03:56:09;2.50;99.90
48666;DHT22;34452;50.796;4.994;2024-01-15T03:58:35;2.40;99.90
48666;DHT22;34452;50.796;4.994;2024-01-15T04:01:00;2.50;99.90
48666;DHT22;34452;50.796;4.994;2024-01-15T04:03:26;2.50;99.90
48666;DHT22;34452;50.796;4.994;2024-01-15T04:05:52;2.40;99.90
48666;DHT22;34452;50.796;4.994;2024-01-15T04:08:17;2.40;99.90
48666;DHT22;34452;50.796;4.994;2024-01-15T04:10:43;2.40;99.90
48666;DHT22;34452;50.796;4.994;2024-01-15T04:13:09;2.40;99.90
48666;DHT22;34452;50.796;4.994;2024-01-15T04:15:34;2.40;99.90
48666;DHT22;34452;50.796;4.994;2024-01-15T04:18:02;2.40;99.90
48666;DHT22;34452;50.796;4.994;2024-01-15T04:20:28;2.40;99.90
48666;DHT22;34452;50.796;4.994;2024-01-15T04:22:54;2.40;99.90
48666;DHT22;34452;50.796;4.994;2024-01-15T04:25:19;2.40;99.90
48666;DHT22;34452;50.796;4.994;2024-01-15T04:27:45;2.40;99.90
48666;DHT22;34452;50.796;4.994;2024-01-15T04:30:11;2.30;99.90
48666;DHT22;34452;50.796;4.994;2024-01-15T04:32:37;2.30;99.90
48666;DHT22;34452;50.796;4.994;2024-01-15T04:35:03;2.30;99.90
48666;DHT22;34452;50.796;4.994;2024-01-15T04:37:28;2.30;99.90
48666;DHT22;34452;50.796;4.994;2024-01-15T04:39:54;2.20;99.90
48666;DHT22;34452;50.796;4.994;2024-01-15T04:42:23;2.20;99.90
48666;DHT22;34452;50.796;4.994;2024-01-15T04:44:49;2.20;99.90
48666;DHT22;34452;50.796;4.994;2024-01-15T04:47:15;2.10;99.90
48666;DHT22;34452;50.796;4.994;2024-01-15T04:49:40;2.10;99.90
48666;DHT22;34452;50.796;4.994;2024-01-15T04:52:06;2.00;99.90
48666;DHT22;34452;50.796;4.994;2024-01-15T04:54:32;2.00;99.90
48666;DHT22;34452;50.796;4.994;2024-01-15T04:56:58;1.90;99.90
48666;DHT22;34452;50.796;4.994;2024-01-15T04:59:23;1.90;99.90
48666;DHT22;34452;50.796;4.994;2024-01-15T05:01:49;1.90;99.90
48666;DHT22;34452;50.796;4.994;2024-01-15T05:04:15;1.90;99.90
48666;DHT22;34452;50.796;4.994;2024-01-15T05:06:41;1.90;99.90
48666;DHT22;34452;50.796;4.994;2024-01-15T05:09:06;1.90;99.90
48666;DHT22;34452;50.796;4.994;2024-01-15T05:11:32;1.90;99.90
48666;DHT22;34452;50.796;4.994;2024-01-15T05:13:58;1.90;99.90
48666;DHT22;34452;50.796;4.994;2024-01-15T05:16:24;1.80;99.90
48666;DHT22;34452;50.796;4.994;2024-01-15T05:18:50;1.80;99.90
48666;DHT22;34452;50.796;4.994;2024-01-15T05:21:16;1.70;99.90
48666;DHT22;34452;50.796;4.994;2024-01-15T05:23:41;1.70;99.90
48666;DHT22;34452;50.796;4.994;2024-01-15T05:26:07;1.70;99.90
48666;DHT22;34452;50.796;4.994;2024-01-15T05:28:34;1.70;99.90
48666;DHT22;34452;50.796;4.994;2024-01-15T05:31:01;1.60;99.90
48666;DHT22;34452;50.796;4.994;2024-01-15T05:33:27;1.60;99.90
48666;DHT22;34452;50.796;4.994;2024-01-15T05:35:52;1.60;99.90
48666;DHT22;34452;50.796;4.994;2024-01-15T05:38:19;1.50;99.90
48666;DHT22;34452;50.796;4.994;2024-01-15T05:40:45;1.50;99.90
48666;DHT22;34452;50.796;4.994;2024-01-15T05:43:10;1.50;99.90
48666;DHT22;34452;50.796;4.994;2024-01-15T05:45:38;1.60;99.90
48666;DHT22;34452;50.796;4.994;2024-01-15T05:48:05;1.60;99.90
48666;DHT22;34452;50.796;4.994;2024-01-15T05:50:30;1.70;99.90
48666;DHT22;34452;50.796;4.994;2024-01-15T05:52:56;1.70;99.90
48666;DHT22;34452;50.796;4.994;2024-01-15T05:55:22;1.70;99.90
48666;DHT22;34452;50.796;4.994;2024-01-15T05:57:47;1.70;99.90
48666;DHT22;34452;50.796;4.994;2024-01-15T06:00:13;1.70;99.90
48666;DHT22;34452;50.796;4.994;2024-01-15T06:02:39;1.60;99.90
48666;DHT22;34452;50.796;4.994;2024-01-15T06:05:05;1.60;99.90
48666;DHT22;34452;50.796;4.994;2024-01-15T06:07:33;1.60;99.90
48666;DHT22;34452;50.796;4.994;2024-01-15T06:09:59;1.60;99.90
48666;DHT22;34452;50.796;4.994;2024-01-15T06:12:24;1.60;99.90
48666;DHT22;34452;50.796;4.994;2024-01-15T06:14:50;1.50;99.90
48666;DHT22;34452;50.796;4.994;2024-01-15T06:17:16;1.50;99.90
48666;DHT22;34452;50.796;4.994;2024-01-15T06:19:41;1.50;99.90
48666;DHT22;34452;50.796;4.994;2024-01-15T06:22:07;1.40;99.90
48666;DHT22;34452;50.796;4.994;2024-01-15T06:24:33;1.40;99.90
48666;DHT22;34452;50.796;4.994;2024-01-15T06:26:59;1.40;99.90
48666;DHT22;34452;50.796;4.994;2024-01-15T06:29:26;1.40;99.90
48666;DHT22;34452;50.796;4.994;2024-01-15T06:31:52;1.40;99.90
48666;DHT22;34452;50.796;4.994;2024-01-15T06:34:18;1.40;99.90
48666;DHT22;34452;50.796;4.994;2024-01-15T06:36:44;1.40;99.90
48666;DHT22;34452;50.796;4.994;2024-01-15T06:39:10;1.40;99.90
48666;DHT22;34452;50.796;4.994;2024-01-15T06:41:36;1.40;99.90
48666;DHT22;34452;50.796;4.994;2024-01-15T06:44:11;1.40;99.90
48666;DHT22;34452;50.796;4.994;2024-01-15T06:46:42;1.30;99.90
48666;DHT22;34452;50.796;4.994;2024-01-15T06:49:07;1.30;99.90
48666;DHT22;34452;50.796;4.994;2024-01-15T06:51:33;1.30;99.90
48666;DHT22;34452;50.796;4.994;2024-01-15T06:53:59;1.40;99.90
48666;DHT22;34452;50.796;4.994;2024-01-15T06:56:24;1.40;99.90
48666;DHT22;34452;50.796;4.994;2024-01-15T06:58:50;1.40;99.90
48666;DHT22;34452;50.796;4.994;2024-01-15T07:01:16;1.50;99.90
48666;DHT22;34452;50.796;4.994;2024-01-15T07:03:41;1.50;99.90
48666;DHT22;34452;50.796;4.994;2024-01-15T07:06:07;1.50;99.90
48666;DHT22;34452;50.796;4.994;2024-01-15T07:08:33;1.60;99.90
48666;DHT22;34452;50.796;4.994;2024-01-15T07:11:03;1.60;99.90
48666;DHT22;34452;50.796;4.994;2024-01-15T07:13:29;1.60;99.90
48666;DHT22;34452;50.796;4.994;2024-01-15T07:15:55;1.70;99.90
48666;DHT22;34452;50.796;4.994;2024-01-15T07:18:20;1.70;99.90
48666;DHT22;34452;50.796;4.994;2024-01-15T07:20:46;1.70;99.90
48666;DHT22;34452;50.796;4.994;2024-01-15T07:23:12;1.70;99.90
48666;DHT22;34452;50.796;4.994;2024-01-15T07:25:37;1.70;99.90
48666;DHT22;34452;50.796;4.994;2024-01-15T07:28:03;1.60;99.90
48666;DHT22;34452;50.796;4.994;2024-01-15T07:30:29;1.60;99.90
48666;DHT22;34452;50.796;4.994;2024-01-15T07:32:55;1.60;99.90
48666;DHT22;34452;50.796;4.994;2024-01-15T07:35:21;1.60;99.90
48666;DHT22;34452;50.796;4.994;2024-01-15T07:37:47;1.60;99.90
48666;DHT22;34452;50.796;4.994;2024-01-15T07:40:13;1.60;99.90
48666;DHT22;34452;50.796;4.994;2024-01-15T07:42:39;1.60;99.90
48666;DHT22;34452;50.796;4.994;2024-01-15T07:45:05;1.60;99.90
48666;DHT22;34452;50.796;4.994;2024-01-15T07:47:31;1.60;99.90
48666;DHT22;34452;50.796;4.994;2024-01-15T07:49:57;1.60;99.90
48666;DHT22;34452;50.796;4.994;2024-01-15T07:52:23;1.60;99.90
48666;DHT22;34452;50.796;4.994;2024-01-15T07:54:48;1.60;99.90
48666;DHT22;34452;50.796;4.994;2024-01-15T07:57:14;1.60;99.90
48666;DHT22;34452;50.796;4.994;2024-01-15T07:59:40;1.70;99.90
48666;DHT22;34452;50.796;4.994;2024-01-15T08:02:06;1.70;99.90
48666;DHT22;34452;50.796;4.994;2024-01-15T08:04:31;1.70;99.90
48666;DHT22;34452;50.796;4.994;2024-01-15T08:06:57;1.80;99.90
48666;DHT22;34452;50.796;4.994;2024-01-15T08:09:23;1.80;99.90
48666;DHT22;34452;50.796;4.994;2024-01-15T08:11:49;1.90;99.90
48666;DHT22;34452;50.796;4.994;2024-01-15T08:14:15;1.90;99.90
48666;DHT22;34452;50.796;4.994;2024-01-15T08:16:41;2.00;99.90
48666;DHT22;34452;50.796;4.994;2024-01-15T08:19:06;2.00;99.90
48666;DHT22;34452;50.796;4.994;2024-01-15T08:21:32;2.00;99.90
48666;DHT22;34452;50.796;4.994;2024-01-15T08:23:59;2.10;99.90
48666;DHT22;34452;50.796;4.994;2024-01-15T08:26:25;2.10;99.90
48666;DHT22;34452;50.796;4.994;2024-01-15T08:28:51;2.20;99.90
48666;DHT22;34452;50.796;4.994;2024-01-15T08:31:17;2.20;99.90
48666;DHT22;34452;50.796;4.994;2024-01-15T08:33:43;2.20;99.90
48666;DHT22;34452;50.796;4.994;2024-01-15T08:36:09;2.30;99.90
48666;DHT22;34452;50.796;4.994;2024-01-15T08:38:35;2.30;99.90
48666;DHT22;34452;50.796;4.994;2024-01-15T08:41:01;2.30;99.90
48666;DHT22;34452;50.796;4.994;2024-01-15T08:43:27;2.30;99.90
48666;DHT22;34452;50.796;4.994;2024-01-15T08:45:53;2.40;99.90
48666;DHT22;34452;50.796;4.994;2024-01-15T08:48:19;2.40;99.90
48666;DHT22;34452;50.796;4.994;2024-01-15T08:50:45;2.40;99.90
48666;DHT22;34452;50.796;4.994;2024-01-15T08:53:14;2.40;99.90
48666;DHT22;34452;50.796;4.994;2024-01-15T08:55:40;2.40;99.90
48666;DHT22;34452;50.796;4.994;2024-01-15T08:58:08;2.50;99.90
48666;DHT22;34452;50.796;4.994;2024-01-15T09:00:34;2.50;99.90
48666;DHT22;34452;50.796;4.994;2024-01-15T09:03:00;2.50;99.90
48666;DHT22;34452;50.796;4.994;2024-01-15T09:05:25;2.50;99.90
48666;DHT22;34452;50.796;4.994;2024-01-15T09:07:51;2.60;99.90
48666;DHT22;34452;50.796;4.994;2024-01-15T09:10:19;2.60;99.90
48666;DHT22;34452;50.796;4.994;2024-01-15T09:12:46;2.70;99.90
48666;DHT22;34452;50.796;4.994;2024-01-15T09:15:11;2.70;99.90
48666;DHT22;34452;50.796;4.994;2024-01-15T09:17:37;2.70;99.90
48666;DHT22;34452;50.796;4.994;2024-01-15T09:20:03;2.80;99.90
48666;DHT22;34452;50.796;4.994;2024-01-15T09:22:32;2.80;99.90
48666;DHT22;34452;50.796;4.994;2024-01-15T09:24:58;2.90;99.90
48666;DHT22;34452;50.796;4.994;2024-01-15T09:27:24;2.90;99.90
48666;DHT22;34452;50.796;4.994;2024-01-15T09:29:54;3.00;99.90
48666;DHT22;34452;50.796;4.994;2024-01-15T09:32:20;3.00;99.90
48666;DHT22;34452;50.796;4.994;2024-01-15T09:34:46;3.10;99.90
48666;DHT22;34452;50.796;4.994;2024-01-15T09:37:13;3.10;99.90
48666;DHT22;34452;50.796;4.994;2024-01-15T09:39:40;3.20;99.90
48666;DHT22;34452;50.796;4.994;2024-01-15T09:42:05;3.20;99.90
48666;DHT22;34452;50.796;4.994;2024-01-15T09:44:31;3.30;99.90
48666;DHT22;34452;50.796;4.994;2024-01-15T09:46:57;3.40;99.90
48666;DHT22;34452;50.796;4.994;2024-01-15T09:49:24;3.40;99.90
48666;DHT22;34452;50.796;4.994;2024-01-15T09:51:50;3.40;99.90
48666;DHT22;34452;50.796;4.994;2024-01-15T09:54:16;3.50;99.90
48666;DHT22;34452;50.796;4.994;2024-01-15T09:56:47;3.60;99.90
48666;DHT22;34452;50.796;4.994;2024-01-15T09:59:16;3.60;99.90
48666;DHT22;34452;50.796;4.994;2024-01-15T10:01:44;3.70;99.90
48666;DHT22;34452;50.796;4.994;2024-01-15T10:04:12;3.70;99.90
48666;DHT22;34452;50.796;4.994;2024-01-15T10:06:39;3.60;99.90
48666;DHT22;34452;50.796;4.994;2024-01-15T10:09:08;3.50;99.90
48666;DHT22;34452;50.796;4.994;2024-01-15T10:11:35;3.50;99.90
48666;DHT22;34452;50.796;4.994;2024-01-15T10:14:01;3.40;99.90
48666;DHT22;34452;50.796;4.994;2024-01-15T10:16:27;3.40;99.90
48666;DHT22;34452;50.796;4.994;2024-01-15T10:18:52;3.30;99.90
48666;DHT22;34452;50.796;4.994;2024-01-15T10:21:18;3.30;99.90
48666;DHT22;34452;50.796;4.994;2024-01-15T10:23:44;3.30;99.90
48666;DHT22;34452;50.796;4.994;2024-01-15T10:26:10;3.30;99.90
48666;DHT22;34452;50.796;4.994;2024-01-15T10:28:37;3.30;99.90
48666;DHT22;34452;50.796;4.994;2024-01-15T10:31:03;3.30;99.90
48666;DHT22;34452;50.796;4.994;2024-01-15T10:33:30;3.30;99.90
48666;DHT22;34452;50.796;4.994;2024-01-15T10:36:00;3.30;99.90
48666;DHT22;34452;50.796;4.994;2024-01-15T10:38:26;3.20;99.90
48666;DHT22;34452;50.796;4.994;2024-01-15T10:40:55;3.20;99.90
48666;DHT22;34452;50.796;4.994;2024-01-15T10:43:21;3.20;99.90
48666;DHT22;34452;50.796;4.994;2024-01-15T10:45:49;3.20;99.90
48666;DHT22;34452;50.796;4.994;2024-01-15T10:48:19;3.30;99.90
48666;DHT22;34452;50.796;4.994;2024-01-15T10:50:48;3.50;99.90
48666;DHT22;34452;50.796;4.994;2024-01-15T10:53:15;3.60;99.90
48666;DHT22;34452;50.796;4.994;2024-01-15T10:55:42;3.70;99.90
48666;DHT22;34452;50.796;4.994;2024-01-15T10:58:09;3.90;99.90
48666;DHT22;34452;50.796;4.994;2024-01-15T11:00:38;4.00;99.90
48666;DHT22;34452;50.796;4.994;2024-01-15T11:03:06;4.00;99.90
48666;DHT22;34452;50.796;4.994;2024-01-15T11:05:44;4.10;99.90
48666;DHT22;34452;50.796;4.994;2024-01-15T11:08:10;4.20;99.90
48666;DHT22;34452;50.796;4.994;2024-01-15T11:10:42;4.30;99.90
48666;DHT22;34452;50.796;4.994;2024-01-15T11:16:09;4.40;99.90
48666;DHT22;34452;50.796;4.994;2024-01-15T11:18:41;4.50;99.90
48666;DHT22;34452;50.796;4.994;2024-01-15T11:23:47;4.60;99.90
48666;DHT22;34452;50.796;4.994;2024-01-15T11:29:08;4.90;99.90
48666;DHT22;34452;50.796;4.994;2024-01-15T11:34:10;5.00;99.90
48666;DHT22;34452;50.796;4.994;2024-01-15T11:41:59;5.10;99.90
48666;DHT22;34452;50.796;4.994;2024-01-15T11:44:26;5.20;99.90
48666;DHT22;34452;50.796;4.994;2024-01-15T11:47:01;5.30;99.90
48666;DHT22;34452;50.796;4.994;2024-01-15T11:50:02;5.40;99.90
48666;DHT22;34452;50.796;4.994;2024-01-15T11:52:35;5.40;99.90
48666;DHT22;34452;50.796;4.994;2024-01-15T11:55:25;5.30;99.90
48666;DHT22;34452;50.796;4.994;2024-01-15T11:57:53;5.20;99.90
48666;DHT22;34452;50.796;4.994;2024-01-15T12:00:22;5.30;99.90
48666;DHT22;34452;50.796;4.994;2024-01-15T12:02:50;5.30;99.90
48666;DHT22;34452;50.796;4.994;2024-01-15T12:05:18;5.30;99.90
48666;DHT22;34452;50.796;4.994;2024-01-15T12:07:49;5.20;99.90
48666;DHT22;34452;50.796;4.994;2024-01-15T12:10:17;5.20;99.90
48666;DHT22;34452;50.796;4.994;2024-01-15T12:15:32;5.10;99.90
48666;DHT22;34452;50.796;4.994;2024-01-15T12:17:59;5.10;99.90
48666;DHT22;34452;50.796;4.994;2024-01-15T12:20:29;5.10;99.90
48666;DHT22;34452;50.796;4.994;2024-01-15T12:22:56;5.10;99.90
48666;DHT22;34452;50.796;4.994;2024-01-15T12:25:25;5.10;99.90
48666;DHT22;34452;50.796;4.994;2024-01-15T12:27:53;5.30;99.90
48666;DHT22;34452;50.796;4.994;2024-01-15T12:30:19;5.40;99.90
48666;DHT22;34452;50.796;4.994;2024-01-15T12:32:45;5.50;99.90
48666;DHT22;34452;50.796;4.994;2024-01-15T12:35:13;5.60;99.90
48666;DHT22;34452;50.796;4.994;2024-01-15T12:37:40;5.60;99.90
48666;DHT22;34452;50.796;4.994;2024-01-15T12:40:07;5.60;99.90
48666;DHT22;34452;50.796;4.994;2024-01-15T12:42:33;5.60;99.90
48666;DHT22;34452;50.796;4.994;2024-01-15T12:45:03;5.50;99.90
48666;DHT22;34452;50.796;4.994;2024-01-15T12:47:30;5.50;99.90
48666;DHT22;34452;50.796;4.994;2024-01-15T12:49:57;5.60;99.90
48666;DHT22;34452;50.796;4.994;2024-01-15T12:52:27;5.70;99.90
48666;DHT22;34452;50.796;4.994;2024-01-15T12:54:52;5.70;99.90
48666;DHT22;34452;50.796;4.994;2024-01-15T12:57:18;5.70;99.90
48666;DHT22;34452;50.796;4.994;2024-01-15T12:59:44;5.80;99.90
48666;DHT22;34452;50.796;4.994;2024-01-15T13:02:14;5.90;99.90
48666;DHT22;34452;50.796;4.994;2024-01-15T13:04:40;6.00;99.90
48666;DHT22;34452;50.796;4.994;2024-01-15T13:07:06;6.00;99.90
48666;DHT22;34452;50.796;4.994;2024-01-15T13:09:33;6.00;99.90
48666;DHT22;34452;50.796;4.994;2024-01-15T13:11:59;6.00;99.90
48666;DHT22;34452;50.796;4.994;2024-01-15T13:14:24;6.10;99.90
48666;DHT22;34452;50.796;4.994;2024-01-15T13:16:50;6.10;99.90
48666;DHT22;34452;50.796;4.994;2024-01-15T13:19:16;6.00;99.90
48666;DHT22;34452;50.796;4.994;2024-01-15T13:21:42;5.80;99.90
48666;DHT22;34452;50.796;4.994;2024-01-15T13:24:08;5.40;99.90
48666;DHT22;34452;50.796;4.994;2024-01-15T13:26:35;5.00;99.90
48666;DHT22;34452;50.796;4.994;2024-01-15T13:29:03;4.80;99.90
48666;DHT22;34452;50.796;4.994;2024-01-15T13:31:30;4.50;99.90
48666;DHT22;34452;50.796;4.994;2024-01-15T13:33:56;4.10;99.90
48666;DHT22;34452;50.796;4.994;2024-01-15T13:36:22;3.80;99.90
48666;DHT22;34452;50.796;4.994;2024-01-15T13:38:49;3.50;99.90
48666;DHT22;34452;50.796;4.994;2024-01-15T13:41:16;3.30;99.90
48666;DHT22;34452;50.796;4.994;2024-01-15T13:43:50;3.20;99.90
48666;DHT22;34452;50.796;4.994;2024-01-15T13:46:16;3.10;99.90
48666;DHT22;34452;50.796;4.994;2024-01-15T13:48:42;3.00;99.90
48666;DHT22;34452;50.796;4.994;2024-01-15T13:51:08;3.00;99.90
48666;DHT22;34452;50.796;4.994;2024-01-15T13:53:34;2.90;99.90
48666;DHT22;34452;50.796;4.994;2024-01-15T13:55:59;2.90;99.90
48666;DHT22;34452;50.796;4.994;2024-01-15T13:58:25;2.90;99.90
48666;DHT22;34452;50.796;4.994;2024-01-15T14:00:51;2.80;99.90
48666;DHT22;34452;50.796;4.994;2024-01-15T14:03:17;2.80;99.90
48666;DHT22;34452;50.796;4.994;2024-01-15T14:05:44;2.80;99.90
48666;DHT22;34452;50.796;4.994;2024-01-15T14:08:10;2.90;99.90
48666;DHT22;34452;50.796;4.994;2024-01-15T14:10:36;3.00;99.90
48666;DHT22;34452;50.796;4.994;2024-01-15T14:13:03;3.10;99.90
48666;DHT22;34452;50.796;4.994;2024-01-15T14:15:29;3.10;99.90
48666;DHT22;34452;50.796;4.994;2024-01-15T14:17:54;3.00;99.90
48666;DHT22;34452;50.796;4.994;2024-01-15T14:20:20;3.00;99.90
48666;DHT22;34452;50.796;4.994;2024-01-15T14:22:46;2.90;99.90
48666;DHT22;34452;50.796;4.994;2024-01-15T14:25:11;2.90;99.90
48666;DHT22;34452;50.796;4.994;2024-01-15T14:27:37;2.90;99.90
48666;DHT22;34452;50.796;4.994;2024-01-15T14:30:03;2.90;99.90
48666;DHT22;34452;50.796;4.994;2024-01-15T14:32:31;2.90;99.90
48666;DHT22;34452;50.796;4.994;2024-01-15T14:34:57;2.90;99.90
48666;DHT22;34452;50.796;4.994;2024-01-15T14:37:22;2.90;99.90
48666;DHT22;34452;50.796;4.994;2024-01-15T14:39:48;2.90;99.90
48666;DHT22;34452;50.796;4.994;2024-01-15T14:42:14;2.90;99.90
48666;DHT22;34452;50.796;4.994;2024-01-15T14:44:39;2.90;99.90
48666;DHT22;34452;50.796;4.994;2024-01-15T14:47:06;2.90;99.90
48666;DHT22;34452;50.796;4.994;2024-01-15T14:49:33;2.80;99.90
48666;DHT22;34452;50.796;4.994;2024-01-15T14:51:59;2.70;99.90
48666;DHT22;34452;50.796;4.994;2024-01-15T14:54:25;2.60;99.90
48666;DHT22;34452;50.796;4.994;2024-01-15T14:56:51;2.40;99.90
48666;DHT22;34452;50.796;4.994;2024-01-15T14:59:17;2.30;99.90
48666;DHT22;34452;50.796;4.994;2024-01-15T15:01:43;2.20;99.90
48666;DHT22;34452;50.796;4.994;2024-01-15T15:04:08;2.20;99.90
48666;DHT22;34452;50.796;4.994;2024-01-15T15:06:36;2.10;99.90
48666;DHT22;34452;50.796;4.994;2024-01-15T15:09:02;2.10;99.90
48666;DHT22;34452;50.796;4.994;2024-01-15T15:11:34;2.10;99.90
48666;DHT22;34452;50.796;4.994;2024-01-15T15:14:01;2.10;99.90
48666;DHT22;34452;50.796;4.994;2024-01-15T15:16:27;2.20;99.90
48666;DHT22;34452;50.796;4.994;2024-01-15T15:18:53;2.20;99.90
48666;DHT22;34452;50.796;4.994;2024-01-15T15:21:20;2.20;99.90
48666;DHT22;34452;50.796;4.994;2024-01-15T15:23:46;2.10;99.90
48666;DHT22;34452;50.796;4.994;2024-01-15T15:26:13;2.20;99.90
48666;DHT22;34452;50.796;4.994;2024-01-15T15:28:39;2.20;99.90
48666;DHT22;34452;50.796;4.994;2024-01-15T15:31:06;2.20;99.90
48666;DHT22;34452;50.796;4.994;2024-01-15T15:33:37;2.20;99.90
48666;DHT22;34452;50.796;4.994;2024-01-15T15:36:03;2.30;99.90
48666;DHT22;34452;50.796;4.994;2024-01-15T15:38:32;2.30;99.90
48666;DHT22;34452;50.796;4.994;2024-01-15T15:40:58;2.30;99.90
48666;DHT22;34452;50.796;4.994;2024-01-15T15:43:28;2.30;99.90
48666;DHT22;34452;50.796;4.994;2024-01-15T15:45:54;2.30;99.90
48666;DHT22;34452;50.796;4.994;2024-01-15T15:48:20;2.30;99.90
48666;DHT22;34452;50.796;4.994;2024-01-15T15:50:46;2.20;99.90
48666;DHT22;34452;50.796;4.994;2024-01-15T15:53:12;2.10;99.90
48666;DHT22;34452;50.796;4.994;2024-01-15T15:55:37;2.10;99.90
48666;DHT22;34452;50.796;4.994;2024-01-15T15:58:04;2.00;99.90
48666;DHT22;34452;50.796;4.994;2024-01-15T16:00:31;2.00;99.90